createdAt,value
2022-08-14T00:01:54.682Z,4.60
2022-08-14T00:04:34.875Z,4.80
2022-08-14T00:07:09.518Z,5.57
2022-08-14T00:09:55.328Z,4.63
2022-08-14T00:12:33.258Z,5.43
2022-08-14T00:15:15.643Z,4.88
2022-08-14T00:17:48.179Z,5.05
2022-08-14T00:20:24.002Z,5.18
2022-08-14T00:22:56.909Z,5.00
2022-08-14T00:25:41.611Z,4.78
2022-08-14T00:28:10.726Z,5.03
2022-08-14T00:30:43.434Z,4.43
2022-08-14T00:33:15.397Z,4.88
2022-08-14T00:36:35.083Z,5.00
2022-08-14T00:38:31.911Z,4.97
2022-08-14T00:40:59.356Z,4.95
2022-08-14T00:43:32.287Z,5.40
2022-08-14T00:46:02.399Z,5.60
2022-08-14T00:51:02.118Z,5.40
2022-08-14T00:53:29.398Z,5.10
2022-08-14T00:55:57.615Z,4.82
2022-08-14T00:58:33.132Z,5.13
2022-08-14T01:01:00.523Z,5.38
2022-08-14T01:03:30.849Z,5.10
2022-08-14T01:06:00.416Z,4.90
2022-08-14T01:08:51.935Z,4.72
2022-08-14T01:11:19.371Z,5.00
2022-08-14T01:13:50.720Z,4.25
2022-08-14T01:16:25.448Z,4.80
2022-08-14T01:19:13.952Z,5.00
2022-08-14T01:21:46.639Z,5.35
2022-08-14T01:24:15.500Z,4.95
2022-08-14T01:26:53.308Z,4.88
2022-08-14T01:29:25.945Z,5.18
2022-08-14T01:32:10.566Z,5.15
2022-08-14T01:35:21.297Z,5.72
2022-08-14T01:37:25.555Z,4.78
2022-08-14T01:39:54.516Z,5.03
2022-08-14T01:42:31.592Z,5.05
2022-08-14T01:44:59.614Z,4.88
2022-08-14T01:47:27.347Z,5.68
2022-08-14T01:50:06.326Z,4.97
2022-08-14T01:52:57.898Z,5.07
2022-08-14T01:55:23.921Z,5.18
2022-08-14T01:58:01.650Z,5.38
2022-08-14T02:00:39.338Z,5.47
2022-08-14T02:03:07.138Z,5.10
2022-08-14T02:05:38.194Z,5.10
2022-08-14T02:08:09.617Z,5.43
2022-08-14T02:10:47.376Z,5.45
2022-08-14T02:13:16.257Z,5.63
2022-08-14T02:15:44.077Z,4.97
2022-08-14T02:18:11.857Z,5.65
2022-08-14T02:20:42.522Z,5.63
2022-08-14T02:23:09.766Z,5.43
2022-08-14T02:25:39.491Z,6.03
2022-08-14T02:28:24.312Z,5.97
2022-08-14T02:30:56.915Z,6.13
2022-08-14T02:33:24.522Z,5.68
2022-08-14T02:36:06.078Z,5.82
2022-08-14T02:38:43.867Z,5.85
2022-08-14T02:41:13.021Z,6.40
2022-08-14T02:43:46.355Z,5.65
2022-08-14T02:46:20.352Z,6.20
2022-08-14T02:49:03.830Z,6.38
2022-08-14T02:51:33.781Z,6.68
2022-08-14T02:54:01.816Z,6.40
2022-08-14T02:57:14.021Z,6.15
2022-08-14T02:59:18.620Z,6.20
2022-08-14T03:01:50.546Z,6.03
2022-08-14T03:04:21.734Z,6.78
2022-08-14T03:06:58.222Z,6.32
2022-08-14T03:10:25.633Z,6.30
2022-08-14T03:12:27.235Z,6.15
2022-08-14T03:14:59.486Z,6.20
2022-08-14T03:17:26.927Z,6.63
2022-08-14T03:19:59.400Z,6.03
2022-08-14T03:22:29.915Z,6.72
2022-08-14T03:24:57.252Z,6.18
2022-08-14T03:27:26.550Z,6.90
2022-08-14T03:30:05.592Z,6.20
2022-08-14T03:32:43.912Z,7.15
2022-08-14T03:35:12.604Z,7.55
2022-08-14T03:39:09.848Z,6.97
2022-08-14T03:40:29.699Z,7.72
2022-08-14T03:42:56.882Z,7.00
2022-08-14T03:45:34.623Z,7.05
2022-08-14T03:48:30.187Z,7.10
2022-08-14T03:50:59.512Z,7.72
2022-08-14T03:53:28.603Z,7.80
2022-08-14T03:55:59.032Z,8.10
2022-08-14T03:58:36.165Z,8.13
2022-08-14T04:01:06.325Z,7.53
2022-08-14T04:03:34.382Z,8.68
2022-08-14T04:06:04.997Z,7.93
2022-08-14T04:08:35.529Z,8.13
2022-08-14T04:11:07.829Z,7.93
2022-08-14T04:13:39.382Z,8.43
2022-08-14T04:16:12.720Z,8.32
2022-08-14T04:18:43.810Z,8.82
2022-08-14T04:21:11.927Z,9.77
2022-08-14T04:23:39.732Z,9.30
2022-08-14T04:26:14.894Z,8.88
2022-08-14T04:29:05.274Z,9.13
2022-08-14T04:32:57.278Z,9.13
2022-08-14T04:34:28.434Z,9.88
2022-08-14T04:37:22.354Z,10.07
2022-08-14T04:40:11.029Z,10.75
2022-08-14T04:42:57.171Z,10.65
2022-08-14T04:45:24.921Z,10.18
2022-08-14T04:48:12.485Z,10.50
2022-08-14T04:50:53.777Z,10.85
2022-08-14T04:53:23.208Z,10.73
2022-08-14T04:55:53.797Z,11.63
2022-08-14T04:58:32.712Z,10.88
2022-08-14T05:01:01.228Z,11.85
2022-08-14T05:03:29.704Z,12.10
2022-08-14T05:05:59.433Z,11.35
2022-08-14T05:08:32.383Z,12.10
2022-08-14T05:11:15.334Z,12.73
2022-08-14T05:16:31.541Z,12.55
2022-08-14T05:19:24.899Z,12.82
2022-08-14T05:21:59.560Z,12.52
2022-08-14T05:24:28.091Z,12.47
2022-08-14T05:26:55.434Z,11.95
2022-08-14T05:29:22.925Z,14.00
2022-08-14T05:31:50.588Z,12.30
2022-08-14T05:34:31.677Z,13.05
2022-08-14T05:37:02.010Z,13.52
2022-08-14T05:39:31.125Z,12.27
2022-08-14T05:41:58.887Z,12.45
2022-08-14T05:44:30.164Z,14.23
2022-08-14T05:46:58.547Z,13.27
2022-08-14T05:49:32.705Z,13.52
2022-08-14T05:52:01.872Z,14.50
2022-08-14T05:54:35.220Z,13.52
2022-08-14T05:57:04.643Z,13.73
2022-08-14T05:59:38.721Z,13.43
2022-08-14T06:02:07.552Z,12.45
2022-08-14T06:04:37.451Z,12.63
2022-08-14T06:07:04.740Z,12.95
2022-08-14T06:09:35.810Z,14.23
2022-08-14T06:12:08.549Z,12.88
2022-08-14T06:14:36.071Z,13.98
2022-08-14T06:17:04.337Z,13.38
2022-08-14T06:19:31.592Z,13.85
2022-08-14T06:21:59.149Z,14.20
2022-08-14T06:24:27.129Z,14.15
2022-08-14T06:26:56.764Z,14.45
2022-08-14T06:29:32.486Z,15.45
2022-08-14T06:32:37.419Z,13.77
2022-08-14T06:35:11.406Z,15.40
2022-08-14T06:37:41.441Z,14.50
2022-08-14T06:40:25.696Z,13.05
2022-08-14T06:42:56.031Z,14.50
2022-08-14T06:45:26.251Z,16.02
2022-08-14T06:47:54.622Z,16.27
2022-08-14T06:50:28.053Z,14.38
2022-08-14T06:52:56.227Z,14.13
2022-08-14T06:55:27.695Z,14.23
2022-08-14T06:57:55.387Z,13.68
2022-08-14T07:00:30.416Z,13.30
2022-08-14T07:03:17.134Z,14.27
2022-08-14T07:05:55.785Z,12.95
2022-08-14T07:08:32.092Z,13.40
2022-08-14T07:11:04.237Z,15.00
2022-08-14T07:13:31.749Z,14.85
2022-08-14T07:16:00.635Z,14.20
2022-08-14T07:18:33.492Z,13.85
2022-08-14T07:21:01.967Z,13.05
2022-08-14T07:23:31.226Z,13.05
2022-08-14T07:26:00.174Z,10.90
2022-08-14T07:28:29.259Z,13.30
2022-08-14T07:31:04.688Z,13.65
2022-08-14T07:33:37.441Z,13.48
2022-08-14T07:36:26.633Z,12.52
2022-08-14T07:38:57.095Z,12.20
2022-08-14T07:41:24.292Z,12.88
2022-08-14T07:43:55.610Z,12.77
2022-08-14T07:46:29.555Z,12.88
2022-08-14T07:48:58.714Z,12.00
2022-08-14T07:51:36.727Z,12.55
2022-08-14T07:54:04.542Z,12.07
2022-08-14T07:56:46.813Z,13.60
2022-08-14T07:59:18.157Z,14.48
2022-08-14T08:01:48.057Z,13.48
2022-08-14T08:04:24.963Z,12.63
2022-08-14T08:06:53.225Z,13.38
2022-08-14T08:09:24.658Z,12.80
2022-08-14T09:09:26.947Z,11.68
2022-08-14T09:12:01.254Z,11.85
2022-08-14T09:14:29.660Z,10.45
2022-08-14T09:17:00.209Z,10.23
2022-08-14T09:19:28.239Z,9.70
2022-08-14T09:21:56.006Z,10.50
2022-08-14T09:24:29.070Z,8.07
2022-08-14T09:27:02.448Z,8.35
2022-08-14T09:29:29.572Z,8.25
2022-08-14T09:34:57.998Z,8.20
2022-08-14T09:37:49.708Z,8.38
2022-08-14T09:40:21.829Z,7.00
2022-08-14T09:42:53.685Z,7.40
2022-08-14T09:45:40.281Z,7.30
2022-08-14T09:48:27.582Z,6.90
2022-08-14T09:50:55.856Z,6.07
2022-08-14T09:54:17.919Z,5.70
2022-08-14T09:56:30.489Z,5.20
2022-08-14T09:59:00.327Z,5.47
2022-08-14T10:01:36.243Z,5.50
2022-08-14T10:04:15.021Z,5.68
2022-08-14T10:06:54.613Z,6.13
2022-08-14T10:09:21.781Z,6.20
2022-08-14T10:11:59.104Z,5.40
2022-08-14T10:14:36.087Z,4.78
2022-08-14T10:17:06.211Z,5.13
2022-08-14T10:19:35.445Z,4.45
2022-08-14T10:23:11.834Z,4.47
2022-08-14T10:24:54.682Z,4.57
2022-08-14T10:27:26.638Z,4.10
2022-08-14T10:30:00.889Z,4.07
2022-08-14T10:32:40.140Z,4.22
2022-08-14T10:35:17.232Z,4.35
2022-08-14T10:37:48.103Z,3.78
2022-08-14T10:40:37.861Z,4.43
2022-08-14T10:43:17.420Z,3.85
2022-08-14T10:45:59.661Z,4.15
2022-08-14T10:48:37.022Z,3.75
2022-08-14T10:51:09.700Z,4.00
2022-08-14T10:53:40.146Z,4.00
2022-08-14T10:56:21.809Z,4.68
2022-08-14T10:59:08.333Z,3.97
2022-08-14T11:01:41.488Z,4.60
2022-08-14T11:04:26.111Z,3.72
2022-08-14T11:06:56.263Z,4.00
2022-08-14T11:09:23.520Z,3.28
2022-08-14T11:12:36.009Z,3.42
2022-08-14T11:14:50.732Z,3.88
2022-08-14T11:17:32.225Z,3.78
2022-08-14T11:20:01.394Z,4.07
2022-08-14T11:22:55.940Z,3.35
2022-08-14T11:25:19.405Z,3.80
2022-08-14T11:27:47.174Z,3.50
2022-08-14T11:30:51.515Z,3.95
2022-08-14T11:33:09.154Z,4.00
2022-08-14T11:35:47.148Z,3.63
2022-08-14T11:38:16.399Z,3.90
2022-08-14T11:40:46.763Z,3.72
2022-08-14T11:43:14.660Z,3.72
2022-08-14T11:45:45.446Z,3.88
2022-08-14T11:49:01.938Z,3.53
2022-08-14T11:51:12.564Z,3.83
2022-08-14T11:53:43.489Z,3.97
2022-08-14T11:58:40.384Z,3.47
2022-08-14T12:01:09.809Z,3.63
2022-08-14T12:03:51.459Z,3.50
2022-08-14T12:06:28.958Z,3.25
2022-08-14T12:11:43.429Z,3.50
2022-08-14T12:14:13.588Z,3.50
2022-08-14T12:17:00.473Z,3.25
2022-08-14T12:19:33.544Z,3.33
2022-08-14T12:22:02.143Z,3.13
2022-08-14T12:24:36.191Z,3.30
2022-08-14T12:27:04.186Z,3.40
2022-08-14T12:29:31.819Z,3.15
2022-08-14T12:32:00.557Z,3.17
2022-08-14T12:34:31.571Z,3.55
2022-08-14T12:37:05.615Z,3.03
2022-08-14T12:39:40.473Z,3.55
2022-08-14T12:42:08.036Z,3.47
2022-08-14T12:44:37.451Z,3.20
2022-08-14T12:47:05.107Z,3.00
2022-08-14T12:49:34.268Z,3.20
2022-08-14T12:52:02.876Z,3.33
2022-08-14T12:54:32.079Z,3.25
2022-08-14T12:57:07.936Z,2.97
2022-08-14T12:59:37.346Z,3.20
2022-08-14T13:02:20.736Z,3.13
2022-08-14T13:04:53.158Z,3.28
2022-08-14T13:07:21.269Z,3.67
2022-08-14T13:09:55.453Z,3.55
2022-08-14T13:12:32.660Z,3.28
2022-08-14T13:15:09.005Z,3.40
2022-08-14T13:17:48.097Z,3.33
2022-08-14T13:20:23.473Z,3.65
2022-08-14T13:22:54.843Z,3.45
2022-08-14T13:25:25.142Z,3.38
2022-08-14T13:27:58.891Z,3.60
2022-08-14T13:30:26.523Z,3.33
2022-08-14T13:32:54.925Z,3.40
2022-08-14T13:35:25.486Z,3.28
2022-08-14T13:37:53.808Z,3.15
2022-08-14T13:40:26.285Z,3.42
2022-08-14T13:42:56.765Z,3.67
2022-08-14T13:45:34.125Z,3.13
2022-08-14T13:48:18.434Z,3.50
2022-08-14T13:51:01.550Z,2.90
2022-08-14T13:53:33.164Z,3.35
2022-08-14T13:56:00.895Z,3.53
2022-08-14T13:58:33.588Z,3.35
2022-08-14T14:01:01.420Z,3.20
2022-08-14T14:03:30.400Z,3.28
2022-08-14T14:05:59.515Z,3.38
2022-08-14T14:08:45.675Z,3.20
2022-08-14T14:11:15.939Z,3.15
2022-08-14T14:13:45.202Z,3.22
2022-08-14T14:16:15.381Z,3.40
2022-08-14T14:18:56.373Z,3.25
2022-08-14T14:21:30.500Z,2.90
2022-08-14T14:24:00.125Z,3.00
2022-08-14T14:26:29.804Z,3.20
2022-08-14T14:29:01.148Z,3.03
2022-08-14T14:31:29.800Z,3.08
2022-08-14T14:33:59.713Z,3.00
2022-08-14T14:36:29.107Z,3.03
2022-08-14T14:38:57.875Z,2.80
2022-08-14T14:41:37.599Z,2.88
2022-08-14T14:44:16.557Z,3.03
2022-08-14T14:46:50.688Z,3.20
2022-08-14T14:49:21.697Z,3.35
2022-08-14T14:51:51.352Z,3.00
2022-08-14T14:54:30.995Z,3.15
2022-08-14T14:57:05.121Z,2.90
2022-08-14T14:59:37.219Z,2.95
2022-08-14T15:02:08.006Z,2.63
2022-08-14T15:04:37.823Z,2.90
2022-08-14T15:07:05.628Z,2.63
2022-08-14T15:09:34.340Z,2.88
2022-08-14T15:12:16.299Z,2.95
2022-08-14T15:14:56.889Z,2.60
2022-08-14T15:17:28.559Z,3.35
2022-08-14T15:20:04.040Z,2.60
2022-08-14T15:22:31.481Z,3.08
2022-08-14T15:24:58.638Z,2.80
2022-08-14T15:27:26.687Z,3.08
2022-08-14T15:29:54.630Z,3.25
2022-08-14T15:32:23.512Z,3.03
2022-08-14T15:34:53.037Z,3.03
2022-08-14T15:37:22.894Z,3.05
2022-08-14T15:39:52.728Z,3.10
2022-08-14T15:42:20.449Z,3.05
2022-08-14T15:44:56.645Z,3.13
2022-08-14T15:47:28.925Z,3.50
2022-08-14T15:49:59.377Z,3.38
2022-08-14T15:52:42.433Z,3.38
2022-08-14T15:55:12.945Z,2.95
2022-08-14T15:58:01.856Z,3.55
2022-08-14T16:00:49.398Z,3.08
2022-08-14T16:03:27.690Z,2.95
2022-08-14T16:06:10.916Z,3.33
2022-08-14T16:08:42.952Z,3.38
2022-08-14T16:11:10.566Z,3.03
2022-08-14T16:13:45.071Z,2.60
2022-08-14T16:16:47.294Z,2.45
2022-08-14T16:19:07.418Z,2.80
2022-08-14T16:21:39.179Z,2.65
2022-08-14T16:24:06.517Z,2.60
2022-08-14T16:26:34.821Z,2.60
2022-08-14T16:29:04.696Z,2.60
2022-08-14T16:31:35.946Z,2.70
2022-08-14T16:34:04.779Z,2.92
2022-08-14T16:36:53.151Z,2.50
2022-08-14T16:39:21.701Z,2.92
2022-08-14T16:41:52.138Z,3.70
2022-08-14T16:44:21.805Z,3.08
2022-08-14T16:47:01.919Z,2.72
2022-08-14T16:49:50.471Z,2.35
2022-08-14T16:52:25.626Z,2.72
2022-08-14T16:55:05.965Z,2.80
2022-08-14T16:57:34.112Z,2.63
2022-08-14T17:00:07.430Z,2.35
2022-08-14T17:03:00.346Z,2.70
2022-08-14T17:05:29.014Z,2.72
2022-08-14T17:08:28.592Z,2.83
2022-08-14T17:10:52.837Z,2.72
2022-08-14T17:13:27.424Z,2.70
2022-08-14T17:16:24.996Z,2.58
2022-08-14T17:19:00.184Z,2.60
2022-08-14T17:21:31.848Z,2.90
2022-08-14T17:24:57.175Z,2.80
2022-08-14T17:26:55.206Z,2.72
2022-08-14T17:29:23.144Z,2.88
2022-08-14T17:32:02.180Z,2.58
2022-08-14T17:34:52.604Z,3.05
2022-08-14T17:37:24.202Z,2.80
2022-08-14T17:40:01.507Z,2.97
2022-08-14T17:42:53.380Z,2.65
2022-08-14T17:45:26.877Z,3.50
2022-08-14T17:47:59.281Z,3.00
2022-08-14T17:51:02.123Z,2.92
2022-08-14T17:53:30.457Z,2.88
2022-08-14T17:56:02.510Z,3.22
2022-08-14T17:58:41.915Z,3.30
2022-08-14T18:01:13.283Z,2.92
2022-08-14T18:03:51.029Z,3.33
2022-08-14T18:06:39.857Z,3.47
2022-08-14T18:09:26.025Z,2.97
2022-08-14T18:11:58.393Z,3.72
2022-08-14T18:14:32.826Z,2.80
2022-08-14T18:17:02.324Z,3.30
2022-08-14T18:19:31.078Z,2.88
2022-08-14T18:22:05.561Z,3.33
2022-08-14T18:24:51.283Z,3.30
2022-08-14T18:27:23.008Z,3.83
2022-08-14T18:29:55.923Z,3.00
2022-08-14T18:32:32.508Z,3.03
2022-08-14T18:35:00.932Z,3.25
2022-08-14T18:37:32.622Z,3.50
2022-08-14T18:40:18.314Z,3.70
2022-08-14T18:42:45.671Z,3.20
2022-08-14T18:45:16.058Z,3.33
2022-08-14T18:50:47.289Z,3.25
2022-08-14T18:53:19.926Z,4.60
2022-08-14T18:55:54.449Z,4.40
2022-08-14T18:58:30.884Z,4.22
2022-08-14T19:01:01.326Z,4.25
2022-08-14T19:03:36.441Z,4.43
2022-08-14T19:06:05.377Z,4.80
2022-08-14T19:08:46.942Z,4.88
2022-08-14T19:11:32.617Z,4.45
2022-08-14T19:14:00.343Z,4.57
2022-08-14T19:16:34.203Z,4.55
2022-08-14T19:19:02.935Z,4.38
2022-08-14T19:21:38.432Z,4.05
2022-08-14T19:24:29.243Z,4.03
2022-08-14T19:27:12.679Z,4.03
2022-08-14T19:29:40.114Z,3.70
2022-08-14T19:32:26.007Z,4.15
2022-08-14T19:34:55.015Z,3.75
2022-08-14T19:37:52.517Z,4.82
2022-08-14T19:40:33.865Z,4.55
2022-08-14T19:43:01.488Z,4.53
2022-08-14T19:45:33.567Z,3.70
2022-08-14T19:48:01.597Z,3.60
2022-08-14T19:50:40.542Z,3.60
2022-08-14T19:53:11.264Z,3.55
2022-08-14T19:55:45.275Z,3.97
2022-08-14T19:58:13.666Z,3.38
2022-08-14T20:00:52.123Z,3.42
2022-08-14T20:03:23.271Z,3.08
2022-08-14T20:06:00.514Z,3.40
2022-08-14T20:10:58.563Z,2.80
2022-08-14T20:12:00.508Z,2.80
2022-08-14T20:14:23.666Z,2.58
2022-08-14T20:17:01.914Z,2.65
2022-08-14T20:19:37.425Z,2.67
2022-08-14T20:22:36.515Z,2.78
2022-08-14T20:24:54.356Z,2.67
2022-08-14T20:27:33.640Z,2.95
2022-08-14T20:30:32.961Z,2.67
2022-08-14T20:33:07.482Z,3.08
2022-08-14T20:35:42.029Z,3.22
2022-08-14T20:38:30.604Z,3.07
2022-08-14T20:41:00.587Z,2.60
2022-08-14T20:43:54.519Z,3.25
2022-08-14T20:46:29.855Z,2.30
2022-08-14T20:49:03.803Z,2.40
2022-08-14T20:51:36.721Z,2.60
2022-08-14T20:54:06.550Z,2.55
2022-08-14T20:56:40.421Z,2.55
2022-08-14T20:59:17.612Z,2.50
2022-08-14T21:01:55.337Z,2.85
2022-08-14T21:04:33.272Z,3.20
2022-08-14T21:07:25.216Z,3.95
2022-08-14T21:10:33.782Z,3.55
2022-08-14T21:13:27.771Z,2.80
2022-08-14T21:15:57.538Z,2.65
2022-08-14T21:18:30.420Z,2.90
2022-08-14T21:20:59.942Z,2.90
2022-08-14T21:23:32.829Z,2.95
2022-08-14T21:26:01.384Z,3.05
2022-08-14T21:28:35.345Z,2.78
2022-08-14T21:31:03.654Z,2.65
2022-08-14T21:33:30.832Z,2.90
2022-08-14T21:36:00.409Z,2.90
2022-08-14T21:38:36.446Z,2.63
2022-08-14T21:41:41.387Z,2.90
2022-08-14T21:44:05.132Z,2.70
2022-08-14T21:46:47.550Z,2.97
2022-08-14T21:49:16.091Z,3.00
2022-08-14T21:51:56.476Z,3.15
2022-08-14T21:54:31.928Z,2.88
2022-08-14T21:57:15.406Z,3.05
2022-08-14T21:59:46.065Z,3.08
2022-08-14T22:02:33.031Z,2.80
2022-08-14T22:05:03.457Z,2.58
2022-08-14T22:07:32.256Z,3.22
2022-08-14T22:10:01.395Z,2.90
2022-08-14T22:12:58.870Z,3.08
2022-08-14T22:15:20.690Z,2.88
2022-08-14T22:17:52.548Z,2.45
2022-08-14T22:20:22.803Z,2.90
2022-08-14T22:22:56.121Z,3.03
2022-08-14T22:25:33.932Z,3.88
2022-08-14T22:28:02.481Z,3.72
2022-08-14T22:30:29.644Z,3.38
2022-08-14T22:33:00.102Z,3.35
2022-08-14T22:35:28.213Z,3.30
2022-08-14T22:38:01.840Z,2.80
2022-08-14T22:41:08.576Z,2.97
2022-08-14T22:43:32.692Z,2.95
2022-08-14T22:46:02.710Z,3.22
2022-08-14T22:48:33.538Z,3.17
2022-08-14T22:51:06.311Z,2.85
2022-08-14T22:53:34.644Z,3.67
2022-08-14T22:56:02.303Z,3.50
2022-08-14T22:58:34.756Z,3.08
2022-08-14T23:01:10.597Z,3.55
2022-08-14T23:03:42.141Z,3.47
2022-08-14T23:07:03.400Z,4.00
2022-08-14T23:09:34.800Z,3.40
2022-08-14T23:11:46.811Z,3.53
2022-08-14T23:14:24.047Z,3.63
2022-08-14T23:16:57.379Z,3.22
2022-08-14T23:19:25.681Z,3.72
2022-08-14T23:22:01.173Z,4.32
2022-08-14T23:24:28.957Z,3.90
2022-08-14T23:26:57.803Z,4.35
2022-08-14T23:29:25.022Z,3.90
2022-08-14T23:31:52.744Z,3.88
2022-08-14T23:34:21.558Z,3.75
2022-08-14T23:36:55.434Z,3.95
2022-08-14T23:39:32.139Z,3.78
2022-08-14T23:42:04.901Z,4.32
2022-08-14T23:44:34.802Z,4.05
2022-08-14T23:47:05.610Z,4.70
2022-08-14T23:49:59.956Z,4.30
2022-08-14T23:52:55.476Z,3.97
2022-08-14T23:55:14.501Z,3.92
2022-08-14T23:57:44.235Z,4.35
